Terminal Aerodrome Forecast
Issued by NWS Mt. Holly, NJ

Home | Current Version | Previous Version | Text Only | Print | Product List | Glossary On
Versions: 1 2 3 4 5 6 7 8 9 10 11 12 13 14 15 16 17 18 19 20 21 22 23 24
283
FTUS41 KPHI 221445 AAA
TAFTTN
TAF AMD
KTTN 221445Z 2215/2312 00000KT 1SM BR OVC002
     FM221800 07006KT 2SM BR OVC004
     FM222200 07012KT 1SM -DZ BR OVC002
     FM230400 06015G25KT 4SM BR OVC005
     FM231000 06022G30KT 4SM -RA BR OVC007=

USA.gov is the U.S. government's official web portal to all federal, state and local government web resources and services.